createdAt,value
2022-09-02T00:01:28.321Z,0.28
2022-09-02T00:04:02.100Z,0.20
2022-09-02T00:06:31.316Z,0.40
2022-09-02T00:08:59.079Z,1.20
2022-09-02T00:11:29.378Z,0.20
2022-09-02T00:13:57.602Z,0.35
2022-09-02T00:16:25.337Z,0.30
2022-09-02T00:18:53.323Z,0.25
2022-09-02T00:21:21.449Z,0.20
2022-09-02T00:23:49.194Z,0.30
2022-09-02T00:26:16.344Z,0.40
2022-09-02T00:28:44.290Z,0.60
2022-09-02T00:31:17.015Z,0.20
2022-09-02T00:33:44.397Z,0.50
2022-09-02T00:36:11.725Z,0.20
2022-09-02T00:38:39.856Z,0.20
2022-09-02T00:41:10.915Z,0.70
2022-09-02T00:43:41.279Z,0.32
2022-09-02T00:46:09.077Z,0.08
2022-09-02T00:48:40.208Z,0.15
2022-09-02T00:51:09.064Z,0.00
2022-09-02T00:53:39.403Z,0.25
2022-09-02T00:56:13.052Z,0.20
2022-09-02T00:58:43.043Z,0.17
2022-09-02T01:01:11.824Z,0.20
2022-09-02T01:03:41.268Z,0.30
2022-09-02T01:06:15.421Z,0.28
2022-09-02T01:08:54.304Z,0.20
2022-09-02T01:11:22.180Z,0.10
2022-09-02T01:13:49.090Z,0.47
2022-09-02T01:16:16.020Z,0.10
2022-09-02T01:18:47.697Z,0.20
2022-09-02T01:21:14.863Z,0.15
2022-09-02T01:23:41.892Z,0.20
2022-09-02T01:26:10.903Z,0.30
2022-09-02T01:28:37.847Z,0.25
2022-09-02T01:31:05.125Z,0.10
2022-09-02T01:33:32.082Z,0.35
2022-09-02T01:35:59.793Z,0.20
2022-09-02T01:38:27.392Z,0.20
2022-09-02T01:40:54.487Z,0.63
2022-09-02T01:43:27.455Z,0.47
2022-09-02T01:45:56.798Z,0.40
2022-09-02T01:48:26.756Z,0.20
2022-09-02T01:51:01.027Z,0.10
2022-09-02T01:53:29.638Z,0.22
2022-09-02T01:55:57.908Z,0.20
2022-09-02T01:58:25.022Z,0.30
2022-09-02T02:00:52.196Z,0.30
2022-09-02T02:03:20.494Z,0.40
2022-09-02T02:05:48.233Z,0.28
2022-09-02T02:08:17.563Z,0.20
2022-09-02T02:10:47.143Z,0.20
2022-09-02T02:13:14.560Z,0.32
2022-09-02T02:15:44.315Z,0.50
2022-09-02T02:18:11.743Z,0.20
2022-09-02T02:20:38.893Z,0.40
2022-09-02T02:23:06.372Z,0.60
2022-09-02T02:25:33.385Z,0.40
2022-09-02T02:28:00.460Z,0.43
2022-09-02T02:30:30.199Z,0.30
2022-09-02T02:32:58.010Z,0.50
2022-09-02T02:35:25.817Z,0.55
2022-09-02T02:37:54.072Z,0.52
2022-09-02T02:40:23.660Z,0.32
2022-09-02T02:42:54.986Z,0.95
2022-09-02T02:45:24.339Z,0.55
2022-09-02T02:47:52.674Z,0.35
2022-09-02T02:50:22.881Z,0.32
2022-09-02T02:52:50.822Z,0.32
2022-09-02T02:55:19.379Z,0.40
2022-09-02T02:57:46.386Z,0.30
2022-09-02T03:00:25.075Z,0.20
2022-09-02T03:02:59.398Z,0.30
2022-09-02T03:05:27.362Z,0.43
2022-09-02T03:07:54.722Z,0.40
2022-09-02T03:10:23.469Z,0.20
2022-09-02T03:12:50.928Z,0.82
2022-09-02T03:15:20.860Z,0.13
2022-09-02T03:17:51.320Z,0.73
2022-09-02T03:20:19.173Z,0.43
2022-09-02T03:22:55.254Z,0.22
2022-09-02T03:25:23.776Z,0.60
2022-09-02T03:27:54.828Z,0.45
2022-09-02T03:30:25.446Z,0.45
2022-09-02T03:32:54.488Z,0.50
2022-09-02T03:35:22.651Z,0.68
2022-09-02T03:37:51.720Z,0.35
2022-09-02T03:40:23.411Z,0.38
2022-09-02T03:42:56.740Z,0.52
2022-09-02T03:45:27.098Z,0.60
2022-09-02T03:47:54.360Z,0.40
2022-09-02T03:50:29.908Z,0.30
2022-09-02T03:52:59.062Z,0.40
2022-09-02T03:55:26.961Z,0.40
2022-09-02T03:57:54.754Z,0.25
2022-09-02T04:00:25.818Z,0.22
2022-09-02T04:02:55.352Z,0.40
2022-09-02T04:05:24.196Z,0.50
2022-09-02T04:07:54.142Z,0.90
2022-09-02T04:10:22.018Z,0.52
2022-09-02T04:12:51.195Z,0.40
2022-09-02T04:15:19.422Z,0.50
2022-09-02T04:17:47.387Z,0.30
2022-09-02T04:20:18.070Z,0.80
2022-09-02T04:22:45.322Z,0.40
2022-09-02T04:25:13.237Z,0.50
2022-09-02T04:27:40.453Z,0.30
2022-09-02T04:30:09.379Z,0.40
2022-09-02T04:32:40.952Z,0.20
2022-09-02T04:35:09.413Z,0.20
2022-09-02T04:37:37.298Z,0.25
2022-09-02T04:40:05.200Z,0.63
2022-09-02T04:42:32.327Z,0.50
2022-09-02T04:44:59.661Z,0.10
2022-09-02T04:47:27.868Z,0.60
2022-09-02T04:49:55.756Z,0.20
2022-09-02T04:52:23.903Z,0.20
2022-09-02T04:54:50.985Z,0.30
2022-09-02T04:57:18.188Z,0.30
2022-09-02T04:59:45.387Z,0.68
2022-09-02T05:02:12.702Z,0.47
2022-09-02T05:04:40.592Z,0.40
2022-09-02T05:07:16.055Z,0.38
2022-09-02T05:12:13.255Z,0.10
2022-09-02T05:14:48.889Z,0.57
2022-09-02T05:17:17.721Z,0.17
2022-09-02T05:19:45.570Z,0.28
2022-09-02T05:22:15.430Z,0.10
2022-09-02T05:24:43.281Z,0.40
2022-09-02T05:27:16.150Z,0.20
2022-09-02T05:29:45.623Z,0.22
2022-09-02T05:32:14.350Z,0.32
2022-09-02T05:34:43.015Z,0.35
2022-09-02T05:37:10.903Z,1.08
2022-09-02T05:39:38.746Z,0.30
2022-09-02T05:42:07.792Z,0.32
2022-09-02T05:44:36.764Z,0.40
2022-09-02T05:47:05.266Z,0.30
2022-09-02T05:49:32.716Z,0.35
2022-09-02T05:52:05.377Z,0.60
2022-09-02T05:54:40.662Z,0.20
2022-09-02T05:57:13.870Z,0.65
2022-09-02T06:02:43.980Z,0.50
2022-09-02T06:05:57.372Z,0.63
2022-09-02T06:08:26.014Z,0.55
2022-09-02T06:10:53.180Z,0.20
2022-09-02T06:13:22.997Z,0.40
2022-09-02T06:15:53.021Z,0.85
2022-09-02T06:18:24.384Z,0.70
2022-09-02T06:20:54.623Z,0.40
2022-09-02T06:23:22.122Z,0.35
2022-09-02T06:25:50.184Z,0.52
2022-09-02T06:28:18.321Z,0.40
2022-09-02T06:30:48.647Z,1.13
2022-09-02T06:35:46.353Z,0.50
2022-09-02T06:38:16.210Z,0.35
2022-09-02T06:40:52.484Z,0.25
2022-09-02T06:43:26.168Z,0.47
2022-09-02T06:46:06.495Z,0.45
2022-09-02T06:48:35.478Z,0.20
2022-09-02T06:51:02.528Z,1.08
2022-09-02T06:53:30.580Z,0.30
2022-09-02T06:55:58.790Z,0.47
2022-09-02T06:58:25.867Z,0.20
2022-09-02T07:00:53.684Z,0.45
2022-09-02T07:03:39.113Z,0.30
2022-09-02T07:06:09.908Z,0.70
2022-09-02T07:08:43.377Z,0.35
2022-09-02T07:11:22.740Z,0.30
2022-09-02T07:13:51.607Z,0.50
2022-09-02T07:16:26.824Z,0.25
2022-09-02T07:18:56.368Z,0.32
2022-09-02T07:21:24.259Z,0.45
2022-09-02T07:23:51.364Z,1.08
2022-09-02T07:26:19.378Z,0.57
2022-09-02T07:28:47.867Z,1.00
2022-09-02T07:31:16.341Z,0.10
2022-09-02T07:33:45.023Z,0.40
2022-09-02T07:36:17.134Z,0.30
2022-09-02T07:38:44.784Z,0.32
2022-09-02T07:41:12.659Z,0.20
2022-09-02T07:43:41.261Z,0.55
2022-09-02T07:46:09.416Z,0.30
2022-09-02T07:48:36.910Z,0.40
2022-09-02T07:51:05.321Z,0.30
2022-09-02T07:53:33.032Z,0.68
2022-09-02T07:56:00.858Z,0.22
2022-09-02T07:58:29.047Z,0.30
2022-09-02T08:01:01.168Z,0.40
2022-09-02T08:03:28.515Z,0.25
2022-09-02T08:05:57.353Z,0.20
2022-09-02T08:08:27.540Z,0.30
2022-09-02T08:10:55.206Z,0.95
2022-09-02T08:13:26.753Z,0.30
2022-09-02T08:15:54.867Z,0.20
2022-09-02T08:18:22.869Z,0.20
2022-09-02T08:20:50.248Z,0.10
2022-09-02T08:23:35.965Z,0.20
2022-09-02T08:26:04.313Z,0.10
2022-09-02T08:28:32.208Z,0.60
2022-09-02T08:30:59.453Z,1.35
2022-09-02T08:33:26.604Z,0.22
2022-09-02T08:35:53.500Z,0.20
2022-09-02T08:38:22.398Z,0.20
2022-09-02T08:40:50.951Z,0.38
2022-09-02T08:43:29.358Z,0.30
2022-09-02T08:46:02.981Z,0.50
2022-09-02T08:48:36.649Z,0.10
2022-09-02T08:51:33.744Z,0.10
2022-09-02T08:54:16.025Z,0.20
2022-09-02T08:56:42.980Z,0.20
2022-09-02T08:59:10.452Z,0.22
2022-09-02T09:01:52.858Z,0.25
2022-09-02T09:04:44.381Z,0.20
2022-09-02T09:07:37.370Z,0.30
2022-09-02T09:10:04.285Z,0.20
2022-09-02T09:12:40.099Z,1.00
2022-09-02T09:15:16.514Z,0.25
2022-09-02T09:17:53.113Z,0.15
2022-09-02T09:20:26.541Z,0.25
2022-09-02T09:22:57.559Z,0.50
2022-09-02T09:25:29.708Z,0.22
2022-09-02T09:28:00.899Z,0.10
2022-09-02T09:30:29.303Z,0.15
2022-09-02T09:33:00.005Z,0.10
2022-09-02T09:35:29.073Z,0.25
2022-09-02T09:37:56.588Z,0.32
2022-09-02T09:40:27.528Z,0.15
2022-09-02T09:43:05.882Z,0.20
2022-09-02T09:45:48.178Z,0.15
2022-09-02T09:48:18.549Z,0.20
2022-09-02T09:50:57.576Z,0.20
2022-09-02T09:53:27.379Z,0.28
2022-09-02T09:56:05.804Z,0.20
2022-09-02T09:58:46.183Z,0.20
2022-09-02T10:01:15.296Z,0.30
2022-09-02T10:03:53.191Z,0.10
2022-09-02T10:06:35.869Z,0.22
2022-09-02T10:09:06.193Z,0.60
2022-09-02T10:11:37.799Z,0.20
2022-09-02T10:14:08.432Z,0.13
2022-09-02T10:16:38.337Z,0.20
2022-09-02T10:19:23.494Z,0.30
2022-09-02T10:22:58.763Z,0.40
2022-09-02T10:25:39.194Z,0.30
2022-09-02T10:28:27.001Z,0.30
2022-09-02T10:31:06.119Z,0.30
2022-09-02T10:33:53.092Z,1.02
2022-09-02T10:36:41.598Z,0.20
2022-09-02T10:39:28.667Z,0.30
2022-09-02T10:42:04.279Z,0.50
2022-09-02T10:44:38.300Z,0.20
2022-09-02T10:47:30.221Z,0.20
2022-09-02T10:50:22.327Z,0.22
2022-09-02T10:53:07.383Z,0.28
2022-09-02T10:55:43.046Z,0.52
2022-09-02T10:58:37.052Z,0.30
2022-09-02T11:01:07.387Z,0.10
2022-09-02T11:06:26.227Z,0.30
2022-09-02T11:09:30.034Z,0.22
2022-09-02T11:12:22.793Z,0.30
2022-09-02T11:15:20.198Z,0.52
2022-09-02T11:17:55.929Z,0.20
2022-09-02T11:20:52.884Z,0.45
2022-09-02T11:23:32.614Z,0.25
2022-09-02T11:26:11.257Z,0.90
2022-09-02T11:29:01.259Z,0.30
2022-09-02T11:31:35.732Z,0.20
2022-09-02T11:34:35.824Z,0.10
2022-09-02T11:37:05.721Z,0.40
2022-09-02T11:40:06.637Z,0.30
2022-09-02T11:42:55.446Z,0.30
2022-09-02T11:46:07.498Z,0.20
2022-09-02T11:48:53.857Z,0.22
2022-09-02T11:51:32.704Z,0.20
2022-09-02T11:54:01.789Z,0.10
2022-09-02T11:56:37.963Z,0.20
2022-09-02T11:59:06.882Z,0.30
2022-09-02T12:01:48.030Z,0.30
2022-09-02T12:07:09.875Z,0.55
2022-09-02T12:12:36.364Z,0.30
2022-09-02T12:15:18.047Z,0.30
2022-09-02T12:17:49.954Z,0.55
2022-09-02T12:20:46.969Z,0.55
2022-09-02T12:24:06.989Z,0.22
2022-09-02T12:26:36.684Z,0.70
2022-09-02T12:29:29.487Z,0.47
2022-09-02T12:31:57.325Z,0.10
2022-09-02T12:34:24.124Z,0.10
2022-09-02T12:37:03.859Z,0.20
2022-09-02T12:39:35.502Z,0.20
2022-09-02T12:42:07.069Z,0.40
2022-09-02T12:44:51.332Z,0.32
2022-09-02T12:47:25.625Z,0.32
2022-09-02T12:50:03.458Z,0.20
2022-09-02T12:52:35.675Z,0.20
2022-09-02T12:55:15.488Z,0.17
2022-09-02T12:57:45.166Z,0.35
2022-09-02T13:00:25.086Z,0.30
2022-09-02T13:03:23.599Z,0.22
2022-09-02T13:06:09.097Z,0.40
2022-09-02T13:08:44.658Z,0.30
2022-09-02T13:11:20.346Z,0.25
2022-09-02T13:14:05.180Z,0.30
2022-09-02T13:17:08.935Z,0.25
2022-09-02T13:19:53.147Z,0.10
2022-09-02T13:22:55.256Z,0.32
2022-09-02T13:25:47.641Z,0.22
2022-09-02T13:28:17.465Z,0.95
2022-09-02T13:31:22.439Z,0.10
2022-09-02T13:33:57.965Z,0.35
2022-09-02T13:36:46.074Z,0.22
2022-09-02T13:39:24.020Z,1.65
2022-09-02T13:41:50.990Z,0.20
2022-09-02T13:44:29.444Z,0.20
2022-09-02T13:47:15.928Z,0.20
2022-09-02T13:49:46.144Z,0.22
2022-09-02T13:52:17.389Z,0.40
2022-09-02T13:54:52.770Z,0.47
2022-09-02T13:57:25.919Z,0.38
2022-09-02T13:59:56.591Z,0.50
2022-09-02T14:02:32.766Z,0.85
2022-09-02T14:05:05.172Z,0.65
2022-09-02T14:07:47.865Z,0.30
2022-09-02T14:10:20.692Z,0.05
2022-09-02T14:12:48.636Z,0.30
2022-09-02T14:15:17.551Z,0.30
2022-09-02T14:17:44.466Z,0.32
2022-09-02T14:20:19.561Z,0.10
2022-09-02T14:22:54.361Z,0.10
2022-09-02T14:25:26.688Z,0.30
2022-09-02T14:28:00.585Z,0.20
2022-09-02T14:30:36.246Z,0.30
2022-09-02T14:33:41.372Z,0.30
2022-09-02T14:36:13.333Z,0.50
2022-09-02T14:38:46.326Z,0.30
2022-09-02T14:41:24.310Z,0.20
2022-09-02T14:43:55.452Z,0.82
2022-09-02T14:46:25.346Z,0.20
2022-09-02T14:48:59.835Z,0.10
2022-09-02T14:51:34.436Z,0.20
2022-09-02T14:54:01.463Z,0.22
2022-09-02T14:56:48.351Z,0.10
2022-09-02T14:59:15.482Z,0.35
2022-09-02T15:01:49.070Z,0.32
2022-09-02T15:04:16.406Z,0.40
2022-09-02T15:06:43.622Z,0.50
2022-09-02T15:09:10.606Z,0.60
2022-09-02T15:11:39.524Z,0.20
2022-09-02T15:14:06.706Z,0.30
2022-09-02T15:16:33.612Z,0.20
2022-09-02T15:19:00.480Z,0.20
2022-09-02T15:21:27.404Z,0.35
2022-09-02T15:23:54.531Z,0.10
2022-09-02T15:26:21.597Z,0.40
2022-09-02T15:28:49.079Z,0.10
2022-09-02T15:31:16.370Z,0.00
2022-09-02T15:33:48.332Z,0.10
2022-09-02T15:36:15.220Z,1.25
2022-09-02T15:38:42.193Z,0.30
2022-09-02T15:41:24.213Z,0.40
2022-09-02T15:43:54.428Z,0.52
2022-09-02T15:46:27.377Z,0.20
2022-09-02T15:48:59.048Z,0.60
2022-09-02T15:51:29.157Z,0.20
2022-09-02T15:54:01.605Z,0.10
2022-09-02T15:56:30.639Z,0.22
2022-09-02T15:58:59.700Z,0.50
2022-09-02T16:01:28.485Z,0.25
2022-09-02T16:03:55.997Z,0.40
2022-09-02T16:06:22.848Z,0.30
2022-09-02T16:08:49.905Z,0.20
2022-09-02T16:11:17.802Z,0.50
2022-09-02T16:13:45.397Z,0.43
2022-09-02T16:16:13.967Z,0.32
2022-09-02T16:18:42.094Z,0.40
2022-09-02T16:21:11.268Z,0.77
2022-09-02T16:23:38.722Z,0.38
2022-09-02T16:26:13.456Z,0.50
2022-09-02T16:28:42.740Z,0.40
2022-09-02T16:31:10.977Z,0.40
2022-09-02T16:33:37.881Z,0.65
2022-09-02T16:36:06.904Z,0.40
2022-09-02T16:38:34.645Z,0.30
2022-09-02T16:41:01.799Z,0.40
2022-09-02T16:43:32.108Z,0.40
2022-09-02T16:46:03.119Z,2.47
2022-09-02T16:48:33.814Z,0.60
2022-09-02T16:51:04.850Z,3.03
2022-09-02T16:53:32.927Z,2.08
2022-09-02T16:55:59.924Z,0.98
2022-09-02T16:58:28.825Z,0.40
2022-09-02T17:00:55.864Z,0.40
2022-09-02T17:03:22.979Z,0.70
2022-09-02T17:05:49.900Z,0.30
2022-09-02T17:08:17.318Z,0.50
2022-09-02T17:10:44.361Z,0.35
2022-09-02T17:13:11.283Z,0.20
2022-09-02T17:15:38.169Z,0.30
2022-09-02T17:18:06.017Z,0.50
2022-09-02T17:20:32.895Z,0.30
2022-09-02T17:23:00.049Z,0.35
2022-09-02T17:25:26.971Z,0.40
2022-09-02T17:27:53.822Z,0.65
2022-09-02T17:30:20.875Z,0.35
2022-09-02T17:32:47.848Z,0.63
2022-09-02T17:35:14.782Z,0.25
2022-09-02T17:37:41.874Z,0.40
2022-09-02T17:40:32.581Z,0.70
2022-09-02T17:42:59.487Z,0.40
2022-09-02T17:45:26.371Z,0.50
2022-09-02T17:47:53.250Z,0.75
2022-09-02T17:50:20.163Z,0.40
2022-09-02T17:52:47.146Z,0.98
2022-09-02T17:55:14.088Z,0.40
2022-09-02T17:58:15.034Z,0.20
2022-09-02T18:00:45.424Z,0.22
2022-09-02T18:03:31.731Z,0.50
2022-09-02T18:06:07.108Z,0.45
2022-09-02T18:08:54.682Z,0.57
2022-09-02T18:11:22.665Z,0.75
2022-09-02T18:14:15.676Z,0.93
2022-09-02T18:16:59.265Z,0.68
2022-09-02T18:19:49.959Z,0.70
2022-09-02T18:26:06.904Z,0.45
2022-09-02T18:28:56.742Z,0.60
2022-09-02T18:31:37.312Z,0.80
2022-09-02T18:34:31.442Z,0.50
2022-09-02T18:37:33.115Z,0.30
2022-09-02T18:40:29.502Z,0.45
2022-09-02T18:43:02.609Z,0.60
2022-09-02T18:45:35.622Z,0.60
2022-09-02T18:48:07.455Z,0.75
2022-09-02T18:50:51.029Z,0.60
2022-09-02T18:53:22.866Z,1.00
2022-09-02T18:55:51.984Z,0.60
2022-09-02T18:58:19.121Z,0.52
2022-09-02T19:00:51.149Z,0.60
2022-09-02T19:03:18.181Z,0.98
2022-09-02T19:05:45.184Z,0.70
2022-09-02T19:08:35.405Z,0.47
2022-09-02T19:11:02.891Z,1.00
2022-09-02T19:13:34.289Z,0.60
2022-09-02T19:16:04.333Z,0.80
2022-09-02T19:18:32.343Z,0.95
2022-09-02T19:20:59.583Z,0.88
2022-09-02T19:23:27.633Z,0.68
2022-09-02T19:25:54.538Z,0.68
2022-09-02T19:28:23.051Z,0.68
2022-09-02T19:30:57.351Z,1.30
2022-09-02T19:33:24.243Z,2.13
2022-09-02T19:35:51.253Z,1.65
2022-09-02T19:38:18.180Z,2.40
2022-09-02T19:40:49.393Z,2.30
2022-09-02T19:43:16.739Z,2.78
2022-09-02T19:45:43.941Z,2.20
2022-09-02T19:48:11.528Z,2.30
2022-09-02T19:50:43.719Z,2.53
2022-09-02T19:53:25.679Z,2.40
2022-09-02T19:55:52.548Z,2.75
2022-09-02T19:58:19.611Z,2.50
2022-09-02T20:00:47.819Z,2.95
2022-09-02T20:03:15.989Z,2.25
2022-09-02T20:05:42.985Z,2.75
2022-09-02T20:08:09.853Z,1.83
2022-09-02T20:10:40.728Z,2.45
2022-09-02T20:13:13.678Z,2.45
2022-09-02T20:15:40.603Z,2.17
2022-09-02T20:18:13.279Z,2.17
2022-09-02T20:20:45.623Z,2.20
2022-09-02T20:23:17.028Z,3.13
2022-09-02T20:26:02.861Z,2.45
2022-09-02T20:28:39.439Z,2.80
2022-09-02T20:31:31.725Z,2.40
2022-09-02T20:34:20.359Z,3.13
2022-09-02T20:37:04.981Z,2.95
2022-09-02T20:40:05.053Z,3.28
2022-09-02T20:43:00.912Z,3.10
2022-09-02T20:45:39.396Z,1.98
2022-09-02T20:48:27.568Z,2.15
2022-09-02T20:51:26.633Z,2.42
2022-09-02T20:54:12.421Z,1.88
2022-09-02T20:56:57.546Z,2.90
2022-09-02T20:59:31.216Z,1.90
2022-09-02T21:02:01.767Z,1.45
2022-09-02T21:04:32.657Z,1.83
2022-09-02T21:07:17.743Z,1.60
2022-09-02T21:09:50.670Z,1.90
2022-09-02T21:12:37.239Z,1.50
2022-09-02T21:15:24.310Z,1.80
2022-09-02T21:17:54.273Z,2.47
2022-09-02T21:20:51.564Z,1.90
2022-09-02T21:23:28.435Z,1.75
2022-09-02T21:25:58.427Z,1.92
2022-09-02T21:28:46.947Z,1.38
2022-09-02T21:31:38.667Z,1.35
2022-09-02T21:34:12.262Z,1.60
2022-09-02T21:36:40.298Z,1.35
2022-09-02T21:39:15.031Z,0.90
2022-09-02T21:41:50.597Z,1.65
2022-09-02T21:44:37.676Z,1.52
2022-09-02T21:47:27.364Z,1.55
2022-09-02T21:50:22.119Z,1.73
2022-09-02T21:52:58.081Z,1.65
2022-09-02T21:55:33.545Z,1.40
2022-09-02T21:58:26.335Z,1.75
2022-09-02T22:01:10.261Z,2.08
2022-09-02T22:03:46.105Z,1.58
2022-09-02T22:06:15.930Z,1.80
2022-09-02T22:08:50.386Z,2.00
2022-09-02T22:11:45.834Z,2.33
2022-09-02T22:14:26.235Z,2.60
2022-09-02T22:16:59.021Z,2.05
2022-09-02T22:19:30.128Z,1.77
2022-09-02T22:22:06.236Z,3.50
2022-09-02T22:24:37.262Z,2.28
2022-09-02T22:27:13.128Z,2.10
2022-09-02T22:29:55.056Z,1.83
2022-09-02T22:32:31.839Z,1.80
2022-09-02T22:35:31.574Z,2.35
2022-09-02T22:38:26.615Z,2.37
2022-09-02T22:40:58.724Z,1.63
2022-09-02T22:43:44.543Z,1.70
2022-09-02T22:46:38.708Z,1.83
2022-09-02T22:49:32.098Z,1.98
2022-09-02T22:52:51.925Z,1.38
2022-09-02T22:55:39.353Z,2.20
2022-09-02T22:58:21.304Z,1.67
2022-09-02T23:01:31.293Z,1.45
2022-09-02T23:04:16.925Z,1.27
2022-09-02T23:06:45.059Z,1.17
2022-09-02T23:09:14.699Z,1.23
2022-09-02T23:12:02.258Z,1.30
2022-09-02T23:14:51.130Z,2.00
2022-09-02T23:17:38.876Z,1.50
2022-09-02T23:20:39.519Z,1.50
2022-09-02T23:26:58.073Z,0.98
2022-09-02T23:29:28.677Z,1.30
2022-09-02T23:32:10.400Z,1.13
2022-09-02T23:34:58.067Z,1.27
2022-09-02T23:37:48.159Z,1.75
2022-09-02T23:40:27.788Z,1.15
2022-09-02T23:42:59.447Z,1.35
2022-09-02T23:45:29.048Z,1.88
2022-09-02T23:48:14.614Z,1.53
2022-09-02T23:50:47.043Z,1.25
2022-09-02T23:53:50.498Z,1.38
2022-09-02T23:56:43.468Z,1.10
2022-09-02T23:59:36.578Z,1.17
